Volin, South Dakota
Current Conditions -  °F | °C
As of 12:35 PM on Monday 20 Oct 2014 (Local Time) from KYKN Reporting Station
Clear Clear  
Wind Chill: 66°   Ceiling: Unl
Heat Index: 66°   Visibility: 10mi
Dew Point: 43°   Wind: 0mph
Humidity: 43%   Direction: NA
Pressure: 30.11"   Gusts: NA
Location:  42.96°N, 97.18°W
Report Text: KYKN 201735Z AUTO 00000KT 10SM CLR 19/06 A3011 RMK AO1
Loading
Personal Weather Stations






























Interactive Weather Map
Tropical Storm Tracking
New forecast layout! Learn more

10-Day Weather Forecast

Advertisements
Track Severe Weather on mobile